sensor_id;sensor_type;location;lat;lon;timestamp;P1;durP1;ratioP1;P2;durP2;ratioP2
51090;SDS011;37136;43.614;3.908;2022-09-03T00:00:26;12.15;;;4.75;;
51090;SDS011;37136;43.614;3.908;2022-09-03T00:05:39;11.45;;;3.83;;
51090;SDS011;37136;43.614;3.908;2022-09-03T00:08:20;13.55;;;4.20;;
51090;SDS011;37136;43.614;3.908;2022-09-03T00:10:52;12.82;;;3.80;;
51090;SDS011;37136;43.614;3.908;2022-09-03T00:13:23;10.38;;;3.60;;
51090;SDS011;37136;43.614;3.908;2022-09-03T00:15:55;12.48;;;4.68;;
51090;SDS011;37136;43.614;3.908;2022-09-03T00:18:24;14.10;;;4.38;;
51090;SDS011;37136;43.614;3.908;2022-09-03T00:20:57;6.85;;;3.13;;
51090;SDS011;37136;43.614;3.908;2022-09-03T00:23:32;9.18;;;3.88;;
51090;SDS011;37136;43.614;3.908;2022-09-03T00:28:49;11.45;;;3.97;;
51090;SDS011;37136;43.614;3.908;2022-09-03T00:31:33;12.57;;;3.63;;
51090;SDS011;37136;43.614;3.908;2022-09-03T00:36:54;11.70;;;4.10;;
51090;SDS011;37136;43.614;3.908;2022-09-03T00:39:21;9.88;;;3.88;;
51090;SDS011;37136;43.614;3.908;2022-09-03T00:41:53;11.23;;;4.30;;
51090;SDS011;37136;43.614;3.908;2022-09-03T00:44:38;11.80;;;3.95;;
51090;SDS011;37136;43.614;3.908;2022-09-03T00:56:26;9.90;;;3.75;;
51090;SDS011;37136;43.614;3.908;2022-09-03T01:19:56;7.72;;;3.35;;
51090;SDS011;37136;43.614;3.908;2022-09-03T02:00:14;7.68;;;3.92;;
51090;SDS011;37136;43.614;3.908;2022-09-03T02:02:25;6.65;;;4.07;;
51090;SDS011;37136;43.614;3.908;2022-09-03T02:04:59;6.20;;;3.10;;
51090;SDS011;37136;43.614;3.908;2022-09-03T02:07:26;6.72;;;3.45;;
51090;SDS011;37136;43.614;3.908;2022-09-03T02:09:58;9.05;;;4.05;;
51090;SDS011;37136;43.614;3.908;2022-09-03T02:12:25;8.10;;;3.47;;
51090;SDS011;37136;43.614;3.908;2022-09-03T02:14:57;7.03;;;3.55;;
51090;SDS011;37136;43.614;3.908;2022-09-03T02:17:28;7.43;;;3.40;;
51090;SDS011;37136;43.614;3.908;2022-09-03T02:19:57;10.23;;;3.97;;
51090;SDS011;37136;43.614;3.908;2022-09-03T02:22:24;6.93;;;3.92;;
51090;SDS011;37136;43.614;3.908;2022-09-03T02:24:49;7.78;;;3.83;;
51090;SDS011;37136;43.614;3.908;2022-09-03T02:27:16;7.32;;;2.80;;
51090;SDS011;37136;43.614;3.908;2022-09-03T02:29:43;10.82;;;3.85;;
51090;SDS011;37136;43.614;3.908;2022-09-03T02:32:10;9.27;;;3.35;;
51090;SDS011;37136;43.614;3.908;2022-09-03T02:34:38;6.43;;;3.40;;
51090;SDS011;37136;43.614;3.908;2022-09-03T02:37:13;7.75;;;3.42;;
51090;SDS011;37136;43.614;3.908;2022-09-03T02:39:40;10.15;;;3.97;;
51090;SDS011;37136;43.614;3.908;2022-09-03T02:42:06;6.13;;;3.05;;
51090;SDS011;37136;43.614;3.908;2022-09-03T02:44:35;6.00;;;4.18;;
51090;SDS011;37136;43.614;3.908;2022-09-03T02:47:07;9.20;;;4.50;;
51090;SDS011;37136;43.614;3.908;2022-09-03T02:49:33;6.82;;;3.20;;
51090;SDS011;37136;43.614;3.908;2022-09-03T02:52:03;10.38;;;3.85;;
51090;SDS011;37136;43.614;3.908;2022-09-03T02:54:33;9.30;;;4.68;;
51090;SDS011;37136;43.614;3.908;2022-09-03T02:57:09;5.78;;;3.55;;
51090;SDS011;37136;43.614;3.908;2022-09-03T02:59:40;8.10;;;3.50;;
51090;SDS011;37136;43.614;3.908;2022-09-03T03:02:08;7.78;;;3.95;;
51090;SDS011;37136;43.614;3.908;2022-09-03T03:04:35;11.25;;;3.80;;
51090;SDS011;37136;43.614;3.908;2022-09-03T03:07:02;8.32;;;3.50;;
51090;SDS011;37136;43.614;3.908;2022-09-03T03:09:28;8.50;;;3.35;;
51090;SDS011;37136;43.614;3.908;2022-09-03T03:11:54;8.82;;;3.70;;
51090;SDS011;37136;43.614;3.908;2022-09-03T03:14:20;8.27;;;3.47;;
51090;SDS011;37136;43.614;3.908;2022-09-03T03:16:47;10.02;;;3.88;;
51090;SDS011;37136;43.614;3.908;2022-09-03T03:19:13;7.28;;;4.10;;
51090;SDS011;37136;43.614;3.908;2022-09-03T03:21:42;12.25;;;3.45;;
51090;SDS011;37136;43.614;3.908;2022-09-03T03:24:07;6.38;;;4.30;;
51090;SDS011;37136;43.614;3.908;2022-09-03T03:26:33;8.60;;;4.00;;
51090;SDS011;37136;43.614;3.908;2022-09-03T03:28:59;9.50;;;4.32;;
51090;SDS011;37136;43.614;3.908;2022-09-03T03:31:28;12.65;;;3.55;;
51090;SDS011;37136;43.614;3.908;2022-09-03T03:33:55;8.00;;;4.25;;
51090;SDS011;37136;43.614;3.908;2022-09-03T03:36:23;6.78;;;3.55;;
51090;SDS011;37136;43.614;3.908;2022-09-03T03:38:55;6.63;;;3.20;;
51090;SDS011;37136;43.614;3.908;2022-09-03T03:41:23;6.35;;;3.60;;
51090;SDS011;37136;43.614;3.908;2022-09-03T03:44:03;6.18;;;3.70;;
51090;SDS011;37136;43.614;3.908;2022-09-03T03:46:31;10.43;;;3.20;;
51090;SDS011;37136;43.614;3.908;2022-09-03T03:48:59;6.35;;;3.65;;
51090;SDS011;37136;43.614;3.908;2022-09-03T03:51:25;8.40;;;3.70;;
51090;SDS011;37136;43.614;3.908;2022-09-03T03:53:55;8.40;;;3.80;;
51090;SDS011;37136;43.614;3.908;2022-09-03T03:56:22;11.00;;;4.45;;
51090;SDS011;37136;43.614;3.908;2022-09-03T03:58:50;7.20;;;4.05;;
51090;SDS011;37136;43.614;3.908;2022-09-03T04:01:24;7.60;;;3.85;;
51090;SDS011;37136;43.614;3.908;2022-09-03T04:03:51;9.40;;;3.88;;
51090;SDS011;37136;43.614;3.908;2022-09-03T04:06:20;9.80;;;4.13;;
51090;SDS011;37136;43.614;3.908;2022-09-03T04:08:46;9.63;;;3.28;;
51090;SDS011;37136;43.614;3.908;2022-09-03T04:11:14;5.80;;;3.30;;
51090;SDS011;37136;43.614;3.908;2022-09-03T04:13:42;9.43;;;4.22;;
51090;SDS011;37136;43.614;3.908;2022-09-03T04:16:10;8.30;;;3.75;;
51090;SDS011;37136;43.614;3.908;2022-09-03T04:18:42;7.38;;;3.40;;
51090;SDS011;37136;43.614;3.908;2022-09-03T04:21:18;8.65;;;4.35;;
51090;SDS011;37136;43.614;3.908;2022-09-03T04:23:46;10.15;;;3.33;;
51090;SDS011;37136;43.614;3.908;2022-09-03T04:26:14;7.57;;;4.15;;
51090;SDS011;37136;43.614;3.908;2022-09-03T04:28:45;7.45;;;3.83;;
51090;SDS011;37136;43.614;3.908;2022-09-03T04:31:12;9.38;;;4.07;;
51090;SDS011;37136;43.614;3.908;2022-09-03T04:33:40;6.65;;;3.80;;
51090;SDS011;37136;43.614;3.908;2022-09-03T04:36:07;8.35;;;3.50;;
51090;SDS011;37136;43.614;3.908;2022-09-03T04:38:36;13.57;;;4.00;;
51090;SDS011;37136;43.614;3.908;2022-09-03T04:41:06;9.80;;;4.03;;
51090;SDS011;37136;43.614;3.908;2022-09-03T04:43:34;6.35;;;3.90;;
51090;SDS011;37136;43.614;3.908;2022-09-03T04:46:01;8.05;;;3.67;;
51090;SDS011;37136;43.614;3.908;2022-09-03T04:48:29;9.55;;;3.72;;
51090;SDS011;37136;43.614;3.908;2022-09-03T04:51:05;6.32;;;3.53;;
51090;SDS011;37136;43.614;3.908;2022-09-03T04:53:37;12.32;;;3.88;;
51090;SDS011;37136;43.614;3.908;2022-09-03T04:56:15;5.68;;;3.70;;
51090;SDS011;37136;43.614;3.908;2022-09-03T04:58:42;6.63;;;4.13;;
51090;SDS011;37136;43.614;3.908;2022-09-03T05:01:16;5.97;;;3.13;;
51090;SDS011;37136;43.614;3.908;2022-09-03T05:03:43;14.07;;;3.83;;
51090;SDS011;37136;43.614;3.908;2022-09-03T05:06:10;11.07;;;4.03;;
51090;SDS011;37136;43.614;3.908;2022-09-03T05:08:37;8.88;;;4.28;;
51090;SDS011;37136;43.614;3.908;2022-09-03T05:11:07;9.25;;;3.80;;
51090;SDS011;37136;43.614;3.908;2022-09-03T05:13:33;5.78;;;3.17;;
51090;SDS011;37136;43.614;3.908;2022-09-03T05:16:04;6.68;;;3.65;;
51090;SDS011;37136;43.614;3.908;2022-09-03T05:18:32;12.70;;;4.05;;
51090;SDS011;37136;43.614;3.908;2022-09-03T05:21:03;6.63;;;3.92;;
51090;SDS011;37136;43.614;3.908;2022-09-03T05:23:51;9.82;;;3.75;;
51090;SDS011;37136;43.614;3.908;2022-09-03T05:26:19;9.02;;;3.42;;
51090;SDS011;37136;43.614;3.908;2022-09-03T05:28:46;7.10;;;3.50;;
51090;SDS011;37136;43.614;3.908;2022-09-03T05:31:14;9.63;;;3.55;;
51090;SDS011;37136;43.614;3.908;2022-09-03T05:33:42;5.93;;;3.45;;
51090;SDS011;37136;43.614;3.908;2022-09-03T05:36:16;8.13;;;3.25;;
51090;SDS011;37136;43.614;3.908;2022-09-03T05:38:45;8.63;;;3.00;;
51090;SDS011;37136;43.614;3.908;2022-09-03T05:41:12;9.43;;;3.20;;
51090;SDS011;37136;43.614;3.908;2022-09-03T05:43:39;7.40;;;3.42;;
51090;SDS011;37136;43.614;3.908;2022-09-03T05:46:06;6.47;;;3.60;;
51090;SDS011;37136;43.614;3.908;2022-09-03T05:48:36;7.57;;;3.42;;
51090;SDS011;37136;43.614;3.908;2022-09-03T05:51:03;12.95;;;3.85;;
51090;SDS011;37136;43.614;3.908;2022-09-03T05:53:32;9.93;;;3.83;;
51090;SDS011;37136;43.614;3.908;2022-09-03T05:56:00;7.80;;;4.07;;
51090;SDS011;37136;43.614;3.908;2022-09-03T06:00:57;5.05;;;3.25;;
51090;SDS011;37136;43.614;3.908;2022-09-03T06:03:23;9.60;;;3.25;;
51090;SDS011;37136;43.614;3.908;2022-09-03T06:05:50;7.63;;;3.60;;
51090;SDS011;37136;43.614;3.908;2022-09-03T06:08:16;10.13;;;4.25;;
51090;SDS011;37136;43.614;3.908;2022-09-03T06:10:42;6.47;;;3.40;;
51090;SDS011;37136;43.614;3.908;2022-09-03T06:13:08;5.90;;;3.85;;
51090;SDS011;37136;43.614;3.908;2022-09-03T06:15:34;7.15;;;3.58;;
51090;SDS011;37136;43.614;3.908;2022-09-03T06:18:00;8.82;;;4.07;;
51090;SDS011;37136;43.614;3.908;2022-09-03T06:20:26;8.90;;;4.30;;
51090;SDS011;37136;43.614;3.908;2022-09-03T06:22:53;8.75;;;3.35;;
51090;SDS011;37136;43.614;3.908;2022-09-03T06:25:20;12.13;;;3.65;;
51090;SDS011;37136;43.614;3.908;2022-09-03T06:27:45;8.93;;;4.30;;
51090;SDS011;37136;43.614;3.908;2022-09-03T06:30:12;5.78;;;3.40;;
51090;SDS011;37136;43.614;3.908;2022-09-03T06:32:50;4.30;;;3.03;;
51090;SDS011;37136;43.614;3.908;2022-09-03T06:35:16;7.03;;;3.47;;
51090;SDS011;37136;43.614;3.908;2022-09-03T06:37:42;7.82;;;3.30;;
51090;SDS011;37136;43.614;3.908;2022-09-03T06:40:08;7.28;;;3.58;;
51090;SDS011;37136;43.614;3.908;2022-09-03T06:42:40;11.20;;;3.88;;
51090;SDS011;37136;43.614;3.908;2022-09-03T06:45:09;6.57;;;3.05;;
51090;SDS011;37136;43.614;3.908;2022-09-03T06:47:35;8.88;;;3.50;;
51090;SDS011;37136;43.614;3.908;2022-09-03T06:50:01;5.57;;;3.38;;
51090;SDS011;37136;43.614;3.908;2022-09-03T06:52:27;11.63;;;3.60;;
51090;SDS011;37136;43.614;3.908;2022-09-03T06:54:54;7.30;;;3.45;;
51090;SDS011;37136;43.614;3.908;2022-09-03T06:57:19;6.85;;;3.10;;
51090;SDS011;37136;43.614;3.908;2022-09-03T06:59:45;6.53;;;3.67;;
51090;SDS011;37136;43.614;3.908;2022-09-03T07:02:11;8.13;;;3.17;;
51090;SDS011;37136;43.614;3.908;2022-09-03T07:04:37;10.07;;;4.05;;
51090;SDS011;37136;43.614;3.908;2022-09-03T07:07:03;9.20;;;4.13;;
51090;SDS011;37136;43.614;3.908;2022-09-03T07:09:28;9.10;;;3.38;;
51090;SDS011;37136;43.614;3.908;2022-09-03T07:11:56;7.35;;;2.90;;
51090;SDS011;37136;43.614;3.908;2022-09-03T07:14:22;7.47;;;3.03;;
51090;SDS011;37136;43.614;3.908;2022-09-03T07:16:48;12.85;;;4.45;;
51090;SDS011;37136;43.614;3.908;2022-09-03T07:19:15;10.95;;;2.88;;
51090;SDS011;37136;43.614;3.908;2022-09-03T07:21:42;7.88;;;3.38;;
51090;SDS011;37136;43.614;3.908;2022-09-03T07:24:08;13.93;;;3.20;;
51090;SDS011;37136;43.614;3.908;2022-09-03T07:26:38;7.95;;;3.20;;
51090;SDS011;37136;43.614;3.908;2022-09-03T07:29:07;8.80;;;3.22;;
51090;SDS011;37136;43.614;3.908;2022-09-03T07:31:34;10.05;;;3.45;;
51090;SDS011;37136;43.614;3.908;2022-09-03T07:36:30;9.60;;;3.03;;
51090;SDS011;37136;43.614;3.908;2022-09-03T07:39:03;7.82;;;3.40;;
51090;SDS011;37136;43.614;3.908;2022-09-03T07:41:29;10.82;;;3.30;;
51090;SDS011;37136;43.614;3.908;2022-09-03T07:43:57;5.00;;;3.10;;
51090;SDS011;37136;43.614;3.908;2022-09-03T07:46:25;7.68;;;2.90;;
51090;SDS011;37136;43.614;3.908;2022-09-03T07:48:52;8.73;;;3.33;;
51090;SDS011;37136;43.614;3.908;2022-09-03T07:51:20;11.13;;;3.50;;
51090;SDS011;37136;43.614;3.908;2022-09-03T07:53:50;9.13;;;3.35;;
51090;SDS011;37136;43.614;3.908;2022-09-03T07:56:17;4.60;;;2.67;;
51090;SDS011;37136;43.614;3.908;2022-09-03T07:58:43;5.28;;;3.20;;
51090;SDS011;37136;43.614;3.908;2022-09-03T08:01:13;7.47;;;2.72;;
51090;SDS011;37136;43.614;3.908;2022-09-03T08:03:47;6.53;;;3.25;;
51090;SDS011;37136;43.614;3.908;2022-09-03T08:06:14;6.43;;;3.30;;
51090;SDS011;37136;43.614;3.908;2022-09-03T08:08:42;6.32;;;3.35;;
51090;SDS011;37136;43.614;3.908;2022-09-03T08:11:13;5.78;;;3.67;;
51090;SDS011;37136;43.614;3.908;2022-09-03T08:13:41;6.13;;;3.03;;
51090;SDS011;37136;43.614;3.908;2022-09-03T08:16:09;6.47;;;3.28;;
51090;SDS011;37136;43.614;3.908;2022-09-03T08:18:36;8.80;;;3.20;;
51090;SDS011;37136;43.614;3.908;2022-09-03T08:21:10;8.85;;;3.05;;
51090;SDS011;37136;43.614;3.908;2022-09-03T08:23:42;4.93;;;2.50;;
51090;SDS011;37136;43.614;3.908;2022-09-03T08:26:12;6.85;;;3.45;;
51090;SDS011;37136;43.614;3.908;2022-09-03T08:28:39;6.03;;;3.13;;
51090;SDS011;37136;43.614;3.908;2022-09-03T08:31:07;8.18;;;3.08;;
51090;SDS011;37136;43.614;3.908;2022-09-03T08:33:39;8.77;;;2.65;;
51090;SDS011;37136;43.614;3.908;2022-09-03T08:36:08;6.43;;;3.50;;
51090;SDS011;37136;43.614;3.908;2022-09-03T08:38:37;6.68;;;3.40;;
51090;SDS011;37136;43.614;3.908;2022-09-03T08:43:31;6.03;;;3.30;;
51090;SDS011;37136;43.614;3.908;2022-09-03T08:46:02;9.52;;;4.13;;
51090;SDS011;37136;43.614;3.908;2022-09-03T08:48:28;9.30;;;3.70;;
51090;SDS011;37136;43.614;3.908;2022-09-03T08:50:55;7.20;;;3.50;;
51090;SDS011;37136;43.614;3.908;2022-09-03T08:53:30;10.60;;;4.43;;
51090;SDS011;37136;43.614;3.908;2022-09-03T08:56:17;8.75;;;3.47;;
51090;SDS011;37136;43.614;3.908;2022-09-03T08:58:48;5.03;;;3.60;;
51090;SDS011;37136;43.614;3.908;2022-09-03T09:23:21;7.55;;;3.60;;
51090;SDS011;37136;43.614;3.908;2022-09-03T09:26:11;10.00;;;3.85;;
51090;SDS011;37136;43.614;3.908;2022-09-03T09:28:42;8.30;;;4.00;;
51090;SDS011;37136;43.614;3.908;2022-09-03T09:31:11;9.23;;;4.07;;
51090;SDS011;37136;43.614;3.908;2022-09-03T09:33:40;10.25;;;4.50;;
51090;SDS011;37136;43.614;3.908;2022-09-03T09:36:10;7.80;;;4.05;;
51090;SDS011;37136;43.614;3.908;2022-09-03T09:38:40;6.63;;;3.38;;
51090;SDS011;37136;43.614;3.908;2022-09-03T09:41:14;9.15;;;4.15;;
51090;SDS011;37136;43.614;3.908;2022-09-03T09:43:43;6.72;;;3.72;;
51090;SDS011;37136;43.614;3.908;2022-09-03T09:46:18;5.82;;;3.97;;
51090;SDS011;37136;43.614;3.908;2022-09-03T09:48:48;12.00;;;4.35;;
51090;SDS011;37136;43.614;3.908;2022-09-03T09:51:20;6.20;;;3.70;;
51090;SDS011;37136;43.614;3.908;2022-09-03T09:54:07;9.00;;;3.83;;
51090;SDS011;37136;43.614;3.908;2022-09-03T09:56:44;6.60;;;3.85;;
51090;SDS011;37136;43.614;3.908;2022-09-03T09:59:13;8.35;;;4.22;;
51090;SDS011;37136;43.614;3.908;2022-09-03T10:01:40;5.35;;;3.50;;
51090;SDS011;37136;43.614;3.908;2022-09-03T10:04:08;9.87;;;3.40;;
51090;SDS011;37136;43.614;3.908;2022-09-03T10:06:38;10.80;;;4.32;;
51090;SDS011;37136;43.614;3.908;2022-09-03T10:09:25;6.05;;;3.60;;
51090;SDS011;37136;43.614;3.908;2022-09-03T10:14:41;5.47;;;3.30;;
51090;SDS011;37136;43.614;3.908;2022-09-03T10:19:53;6.68;;;4.35;;
51090;SDS011;37136;43.614;3.908;2022-09-03T10:22:40;9.15;;;4.32;;
51090;SDS011;37136;43.614;3.908;2022-09-03T10:25:13;9.55;;;4.18;;
51090;SDS011;37136;43.614;3.908;2022-09-03T10:27:40;11.27;;;3.95;;
51090;SDS011;37136;43.614;3.908;2022-09-03T10:30:10;9.30;;;3.85;;
51090;SDS011;37136;43.614;3.908;2022-09-03T10:35:51;7.72;;;3.90;;
51090;SDS011;37136;43.614;3.908;2022-09-03T10:38:40;10.30;;;4.17;;
51090;SDS011;37136;43.614;3.908;2022-09-03T10:46:28;10.32;;;4.15;;
51090;SDS011;37136;43.614;3.908;2022-09-03T10:51:41;7.00;;;4.00;;
51090;SDS011;37136;43.614;3.908;2022-09-03T10:57:03;13.27;;;4.47;;
51090;SDS011;37136;43.614;3.908;2022-09-03T11:05:19;9.32;;;4.78;;
51090;SDS011;37136;43.614;3.908;2022-09-03T11:07:47;10.57;;;5.65;;
51090;SDS011;37136;43.614;3.908;2022-09-03T11:12:54;10.07;;;4.47;;
51090;SDS011;37136;43.614;3.908;2022-09-03T11:18:27;12.55;;;4.53;;
51090;SDS011;37136;43.614;3.908;2022-09-03T11:21:03;7.93;;;4.35;;
51090;SDS011;37136;43.614;3.908;2022-09-03T11:23:36;11.18;;;4.30;;
51090;SDS011;37136;43.614;3.908;2022-09-03T11:26:06;9.13;;;3.33;;
51090;SDS011;37136;43.614;3.908;2022-09-03T11:34:11;6.60;;;3.13;;
51090;SDS011;37136;43.614;3.908;2022-09-03T11:39:43;5.97;;;4.43;;
51090;SDS011;37136;43.614;3.908;2022-09-03T11:42:26;12.13;;;4.20;;
51090;SDS011;37136;43.614;3.908;2022-09-03T11:44:58;11.35;;;3.30;;
51090;SDS011;37136;43.614;3.908;2022-09-03T11:47:39;9.15;;;3.80;;
51090;SDS011;37136;43.614;3.908;2022-09-03T11:50:28;15.80;;;4.95;;
51090;SDS011;37136;43.614;3.908;2022-09-03T11:53:05;7.85;;;3.55;;
51090;SDS011;37136;43.614;3.908;2022-09-03T11:55:46;10.10;;;3.20;;
51090;SDS011;37136;43.614;3.908;2022-09-03T11:58:33;8.95;;;3.90;;
51090;SDS011;37136;43.614;3.908;2022-09-03T12:01:02;9.70;;;3.78;;
51090;SDS011;37136;43.614;3.908;2022-09-03T12:14:05;8.18;;;2.97;;
51090;SDS011;37136;43.614;3.908;2022-09-03T12:16:48;11.43;;;3.13;;
51090;SDS011;37136;43.614;3.908;2022-09-03T12:19:26;9.70;;;3.20;;
51090;SDS011;37136;43.614;3.908;2022-09-03T12:21:53;10.32;;;3.20;;
51090;SDS011;37136;43.614;3.908;2022-09-03T12:24:20;11.48;;;2.85;;
51090;SDS011;37136;43.614;3.908;2022-09-03T12:26:47;7.80;;;3.08;;
51090;SDS011;37136;43.614;3.908;2022-09-03T12:29:21;7.18;;;2.88;;
51090;SDS011;37136;43.614;3.908;2022-09-03T12:31:51;10.85;;;2.97;;
51090;SDS011;37136;43.614;3.908;2022-09-03T12:34:20;10.07;;;3.25;;
51090;SDS011;37136;43.614;3.908;2022-09-03T12:36:48;8.65;;;2.90;;
51090;SDS011;37136;43.614;3.908;2022-09-03T12:39:21;10.35;;;2.88;;
51090;SDS011;37136;43.614;3.908;2022-09-03T12:42:11;10.48;;;3.20;;
51090;SDS011;37136;43.614;3.908;2022-09-03T12:44:39;14.30;;;3.15;;
51090;SDS011;37136;43.614;3.908;2022-09-03T12:47:06;9.63;;;3.70;;
51090;SDS011;37136;43.614;3.908;2022-09-03T12:49:40;11.27;;;3.30;;
51090;SDS011;37136;43.614;3.908;2022-09-03T12:57:37;12.70;;;3.53;;
51090;SDS011;37136;43.614;3.908;2022-09-03T13:00:11;10.32;;;3.78;;
51090;SDS011;37136;43.614;3.908;2022-09-03T13:05:13;6.80;;;2.78;;
51090;SDS011;37136;43.614;3.908;2022-09-03T13:07:42;9.10;;;2.55;;
51090;SDS011;37136;43.614;3.908;2022-09-03T13:10:19;19.45;;;4.28;;
51090;SDS011;37136;43.614;3.908;2022-09-03T13:12:56;6.63;;;2.93;;
51090;SDS011;37136;43.614;3.908;2022-09-03T13:15:28;10.85;;;2.50;;
51090;SDS011;37136;43.614;3.908;2022-09-03T13:20:26;8.80;;;3.05;;
51090;SDS011;37136;43.614;3.908;2022-09-03T13:23:06;7.77;;;2.63;;
51090;SDS011;37136;43.614;3.908;2022-09-03T13:31:52;9.77;;;2.50;;
51090;SDS011;37136;43.614;3.908;2022-09-03T13:34:28;10.35;;;3.35;;
51090;SDS011;37136;43.614;3.908;2022-09-03T13:36:58;11.82;;;2.80;;
51090;SDS011;37136;43.614;3.908;2022-09-03T13:39:36;11.80;;;2.80;;
51090;SDS011;37136;43.614;3.908;2022-09-03T13:42:12;12.05;;;2.97;;
51090;SDS011;37136;43.614;3.908;2022-09-03T13:45:34;8.15;;;3.33;;
51090;SDS011;37136;43.614;3.908;2022-09-03T13:47:59;8.65;;;2.92;;
51090;SDS011;37136;43.614;3.908;2022-09-03T13:50:56;11.07;;;3.10;;
51090;SDS011;37136;43.614;3.908;2022-09-03T13:56:24;13.07;;;2.88;;
51090;SDS011;37136;43.614;3.908;2022-09-03T13:59:19;9.65;;;2.83;;
51090;SDS011;37136;43.614;3.908;2022-09-03T14:07:14;9.77;;;2.97;;
51090;SDS011;37136;43.614;3.908;2022-09-03T14:12:49;15.13;;;3.30;;
51090;SDS011;37136;43.614;3.908;2022-09-03T14:21:02;14.40;;;4.18;;
51090;SDS011;37136;43.614;3.908;2022-09-03T14:26:16;5.80;;;3.20;;
51090;SDS011;37136;43.614;3.908;2022-09-03T14:28:56;9.32;;;2.95;;
51090;SDS011;37136;43.614;3.908;2022-09-03T14:40:02;13.43;;;3.58;;
51090;SDS011;37136;43.614;3.908;2022-09-03T14:54:05;7.43;;;2.67;;
51090;SDS011;37136;43.614;3.908;2022-09-03T14:59:51;9.80;;;2.40;;
51090;SDS011;37136;43.614;3.908;2022-09-03T15:05:35;7.85;;;2.38;;
51090;SDS011;37136;43.614;3.908;2022-09-03T15:13:15;8.80;;;2.45;;
51090;SDS011;37136;43.614;3.908;2022-09-03T15:26:46;10.77;;;3.55;;
51090;SDS011;37136;43.614;3.908;2022-09-03T15:29:48;12.27;;;3.42;;
51090;SDS011;37136;43.614;3.908;2022-09-03T15:35:08;11.35;;;3.25;;
51090;SDS011;37136;43.614;3.908;2022-09-03T15:37:54;10.57;;;3.10;;
51090;SDS011;37136;43.614;3.908;2022-09-03T15:40:38;9.82;;;3.50;;
51090;SDS011;37136;43.614;3.908;2022-09-03T15:43:24;8.80;;;2.65;;
51090;SDS011;37136;43.614;3.908;2022-09-03T15:54:01;8.98;;;2.83;;
51090;SDS011;37136;43.614;3.908;2022-09-03T15:56:42;11.77;;;2.92;;
51090;SDS011;37136;43.614;3.908;2022-09-03T16:02:06;10.35;;;3.15;;
51090;SDS011;37136;43.614;3.908;2022-09-03T16:10:31;11.63;;;2.78;;
51090;SDS011;37136;43.614;3.908;2022-09-03T16:16:01;11.65;;;3.60;;
51090;SDS011;37136;43.614;3.908;2022-09-03T16:18:31;15.48;;;3.78;;
51090;SDS011;37136;43.614;3.908;2022-09-03T16:21:11;10.68;;;2.95;;
51090;SDS011;37136;43.614;3.908;2022-09-03T16:26:20;9.50;;;3.10;;
51090;SDS011;37136;43.614;3.908;2022-09-03T16:39:51;19.10;;;3.40;;
51090;SDS011;37136;43.614;3.908;2022-09-03T16:42:42;13.30;;;2.40;;
51090;SDS011;37136;43.614;3.908;2022-09-03T16:51:23;9.55;;;2.60;;
51090;SDS011;37136;43.614;3.908;2022-09-03T16:54:09;10.68;;;3.25;;
51090;SDS011;37136;43.614;3.908;2022-09-03T16:56:45;12.68;;;2.90;;
51090;SDS011;37136;43.614;3.908;2022-09-03T16:59:33;12.20;;;2.55;;
51090;SDS011;37136;43.614;3.908;2022-09-03T17:15:48;12.57;;;3.35;;
51090;SDS011;37136;43.614;3.908;2022-09-03T17:22:07;13.67;;;3.07;;
51090;SDS011;37136;43.614;3.908;2022-09-03T17:26:53;14.10;;;3.20;;
51090;SDS011;37136;43.614;3.908;2022-09-03T17:49:05;15.52;;;3.17;;
51090;SDS011;37136;43.614;3.908;2022-09-03T17:54:32;11.90;;;6.88;;
51090;SDS011;37136;43.614;3.908;2022-09-03T18:00:03;16.13;;;4.03;;
51090;SDS011;37136;43.614;3.908;2022-09-03T18:02:38;17.35;;;4.25;;
51090;SDS011;37136;43.614;3.908;2022-09-03T18:07:40;18.92;;;4.38;;
51090;SDS011;37136;43.614;3.908;2022-09-03T18:13:02;11.40;;;3.17;;
51090;SDS011;37136;43.614;3.908;2022-09-03T18:15:54;17.73;;;4.10;;
51090;SDS011;37136;43.614;3.908;2022-09-03T18:18:42;17.63;;;3.55;;
51090;SDS011;37136;43.614;3.908;2022-09-03T18:21:13;14.35;;;3.25;;
51090;SDS011;37136;43.614;3.908;2022-09-03T18:27:14;22.48;;;4.85;;
51090;SDS011;37136;43.614;3.908;2022-09-03T18:30:20;16.73;;;4.28;;
51090;SDS011;37136;43.614;3.908;2022-09-03T18:33:04;15.13;;;3.67;;
51090;SDS011;37136;43.614;3.908;2022-09-03T18:35:48;13.02;;;3.28;;
51090;SDS011;37136;43.614;3.908;2022-09-03T18:38:33;17.73;;;4.65;;
51090;SDS011;37136;43.614;3.908;2022-09-03T18:44:34;16.85;;;4.68;;
51090;SDS011;37136;43.614;3.908;2022-09-03T18:47:44;22.70;;;5.72;;
51090;SDS011;37136;43.614;3.908;2022-09-03T18:50:57;16.52;;;5.32;;
51090;SDS011;37136;43.614;3.908;2022-09-03T18:56:54;26.63;;;5.70;;
51090;SDS011;37136;43.614;3.908;2022-09-03T19:02:58;18.35;;;5.30;;
51090;SDS011;37136;43.614;3.908;2022-09-03T19:12:17;24.20;;;5.80;;
51090;SDS011;37136;43.614;3.908;2022-09-03T19:15:27;12.50;;;5.15;;
51090;SDS011;37136;43.614;3.908;2022-09-03T19:21:33;13.63;;;5.20;;
51090;SDS011;37136;43.614;3.908;2022-09-03T19:24:25;19.38;;;5.43;;
51090;SDS011;37136;43.614;3.908;2022-09-03T19:30:33;28.75;;;6.28;;
51090;SDS011;37136;43.614;3.908;2022-09-03T19:33:46;20.90;;;6.20;;
51090;SDS011;37136;43.614;3.908;2022-09-03T19:36:45;18.95;;;6.30;;
51090;SDS011;37136;43.614;3.908;2022-09-03T19:52:10;20.20;;;5.53;;
51090;SDS011;37136;43.614;3.908;2022-09-03T19:55:03;25.20;;;7.65;;
51090;SDS011;37136;43.614;3.908;2022-09-03T19:57:51;22.60;;;8.27;;
51090;SDS011;37136;43.614;3.908;2022-09-03T20:00:40;19.95;;;6.90;;
51090;SDS011;37136;43.614;3.908;2022-09-03T20:03:24;23.60;;;7.03;;
51090;SDS011;37136;43.614;3.908;2022-09-03T20:06:10;16.50;;;6.00;;
51090;SDS011;37136;43.614;3.908;2022-09-03T20:08:55;29.30;;;7.93;;
51090;SDS011;37136;43.614;3.908;2022-09-03T20:11:51;20.65;;;7.10;;
51090;SDS011;37136;43.614;3.908;2022-09-03T20:14:20;23.65;;;7.22;;
51090;SDS011;37136;43.614;3.908;2022-09-03T20:16:53;19.23;;;7.28;;
51090;SDS011;37136;43.614;3.908;2022-09-03T20:28:30;17.38;;;6.88;;
51090;SDS011;37136;43.614;3.908;2022-09-03T20:42:39;20.60;;;6.28;;
51090;SDS011;37136;43.614;3.908;2022-09-03T20:45:31;16.52;;;5.55;;
51090;SDS011;37136;43.614;3.908;2022-09-03T20:56:19;21.17;;;5.72;;
51090;SDS011;37136;43.614;3.908;2022-09-03T21:12:27;14.48;;;6.03;;
51090;SDS011;37136;43.614;3.908;2022-09-03T21:18:14;18.45;;;6.25;;
51090;SDS011;37136;43.614;3.908;2022-09-03T21:23:28;19.38;;;5.53;;
51090;SDS011;37136;43.614;3.908;2022-09-03T21:26:22;22.52;;;6.00;;
51090;SDS011;37136;43.614;3.908;2022-09-03T21:29:16;17.33;;;5.60;;
51090;SDS011;37136;43.614;3.908;2022-09-03T21:34:19;27.42;;;6.25;;
51090;SDS011;37136;43.614;3.908;2022-09-03T21:36:49;18.90;;;6.82;;
51090;SDS011;37136;43.614;3.908;2022-09-03T21:42:08;11.13;;;4.63;;
51090;SDS011;37136;43.614;3.908;2022-09-03T21:44:41;21.73;;;6.40;;
51090;SDS011;37136;43.614;3.908;2022-09-03T21:47:48;21.63;;;6.53;;
51090;SDS011;37136;43.614;3.908;2022-09-03T21:50:24;23.02;;;6.90;;
51090;SDS011;37136;43.614;3.908;2022-09-03T21:53:08;17.63;;;5.80;;
51090;SDS011;37136;43.614;3.908;2022-09-03T21:58:37;19.63;;;5.72;;
51090;SDS011;37136;43.614;3.908;2022-09-03T22:04:09;20.40;;;5.63;;
51090;SDS011;37136;43.614;3.908;2022-09-03T22:09:09;15.07;;;5.43;;
51090;SDS011;37136;43.614;3.908;2022-09-03T22:14:32;15.00;;;5.50;;
51090;SDS011;37136;43.614;3.908;2022-09-03T22:17:09;21.70;;;6.10;;
51090;SDS011;37136;43.614;3.908;2022-09-03T22:19:54;19.60;;;6.00;;
51090;SDS011;37136;43.614;3.908;2022-09-03T22:22:26;16.55;;;4.85;;
51090;SDS011;37136;43.614;3.908;2022-09-03T22:25:10;17.60;;;5.45;;
51090;SDS011;37136;43.614;3.908;2022-09-03T22:27:46;13.65;;;5.53;;